Time;durP1;ratioP1;P1;durP2;ratioP2;P2;SDS_P1;SDS_P2;PMS_P1;PMS_P2;Temp;Humidity;BMP_temperature;BMP_pressure;BME280_temperature;BME280_humidity;BME280_pressure;Samples;Min_cycle;Max_cycle;Signal;HPM_P1;HPM_P2
2023/10/16 00:00:43;;;;;;;13.98;13.43;;;5.60;99.90;;;;;;5052382;28;20215;-63
2023/10/16 00:03:12;;;;;;;13.73;13.23;;;5.50;99.90;;;;;;5051888;28;20782;-64
2023/10/16 00:05:45;;;;;;;13.70;13.10;;;5.50;99.90;;;;;;5051740;28;20682;-65
2023/10/16 00:08:12;;;;;;;13.77;13.18;;;5.50;99.90;;;;;;5051936;28;20231;-64
2023/10/16 00:10:39;;;;;;;14.67;14.07;;;5.50;99.90;;;;;;5051168;28;20204;-64
2023/10/16 00:13:11;;;;;;;13.97;13.47;;;5.50;99.90;;;;;;5051802;28;20204;-64
2023/10/16 00:15:44;;;;;;;13.73;13.18;;;5.40;99.90;;;;;;5050652;28;20700;-64
2023/10/16 00:18:18;;;;;;;13.77;13.27;;;5.40;99.90;;;;;;5051207;28;20701;-65
2023/10/16 00:20:45;;;;;;;13.47;12.97;;;5.40;99.90;;;;;;5045660;28;20192;-64
2023/10/16 00:23:12;;;;;;;13.80;13.30;;;5.50;99.90;;;;;;5051952;28;20212;-64
2023/10/16 00:25:39;;;;;;;12.82;12.32;;;5.60;99.90;;;;;;5051648;28;20551;-63
2023/10/16 00:28:08;;;;;;;13.25;12.75;;;5.50;99.90;;;;;;5051422;28;20231;-64
2023/10/16 00:30:35;;;;;;;13.10;12.60;;;5.50;99.90;;;;;;5051600;28;20212;-65
2023/10/16 00:33:04;;;;;;;12.98;12.48;;;5.40;99.90;;;;;;5052093;28;20208;-63
2023/10/16 00:35:31;;;;;;;13.40;12.90;;;5.50;99.90;;;;;;5051684;28;20281;-63
2023/10/16 00:37:58;;;;;;;13.73;13.23;;;5.50;99.90;;;;;;5051998;28;20666;-63
2023/10/16 00:40:32;;;;;;;13.37;12.87;;;5.50;99.90;;;;;;5052435;28;20565;-63
2023/10/16 00:43:09;;;;;;;13.93;13.33;;;5.60;99.90;;;;;;5052334;28;20207;-63
2023/10/16 00:45:47;;;;;;;13.30;12.80;;;5.50;99.90;;;;;;5052683;28;20670;-63
2023/10/16 00:48:16;;;;;;;12.95;12.45;;;5.50;99.90;;;;;;5051836;28;20226;-63
2023/10/16 00:50:44;;;;;;;13.02;12.52;;;5.50;99.90;;;;;;5051067;28;20663;-63
2023/10/16 00:53:12;;;;;;;13.90;13.30;;;5.50;99.90;;;;;;5051140;28;20211;-64
2023/10/16 00:55:39;;;;;;;14.02;13.43;;;5.60;99.90;;;;;;5051311;28;20215;-62
2023/10/16 00:58:07;;;;;;;13.63;13.02;;;5.60;99.90;;;;;;5051357;28;20807;-63
2023/10/16 01:00:37;;;;;;;14.05;13.45;;;5.60;99.90;;;;;;5051023;28;20204;-63
2023/10/16 01:03:06;;;;;;;14.07;13.50;;;5.60;99.90;;;;;;5051036;28;20196;-63
2023/10/16 01:05:39;;;;;;;13.68;13.18;;;5.60;99.90;;;;;;5050439;28;20238;-63
2023/10/16 01:08:07;;;;;;;13.53;12.93;;;5.70;99.90;;;;;;5050942;28;20216;-64
2023/10/16 01:10:36;;;;;;;13.23;12.73;;;5.70;99.90;;;;;;5050644;28;20283;-63
2023/10/16 01:13:08;;;;;;;13.77;13.23;;;5.70;99.90;;;;;;5050990;28;20235;-63
2023/10/16 01:15:43;;;;;;;13.02;12.52;;;5.70;99.90;;;;;;5050310;28;20706;-64
2023/10/16 01:18:13;;;;;;;14.20;13.60;;;5.70;99.90;;;;;;5050485;28;20318;-63
2023/10/16 01:20:46;;;;;;;13.45;12.95;;;5.70;99.90;;;;;;5051512;28;20659;-63
2023/10/16 01:23:16;;;;;;;13.10;12.60;;;5.80;99.90;;;;;;5054462;28;20214;-63
2023/10/16 01:25:44;;;;;;;13.10;12.60;;;5.80;99.90;;;;;;5054631;28;20302;-63
2023/10/16 01:28:11;;;;;;;13.23;12.73;;;5.70;99.90;;;;;;5054473;28;20655;-63
2023/10/16 01:30:41;;;;;;;13.60;13.10;;;5.70;99.90;;;;;;5064946;28;20200;-63
2023/10/16 01:33:08;;;;;;;14.57;13.87;;;5.70;99.90;;;;;;5069319;28;20254;-64
2023/10/16 01:35:36;;;;;;;13.33;12.83;;;5.70;99.90;;;;;;5054894;28;20203;-63
2023/10/16 01:38:08;;;;;;;12.97;12.47;;;5.70;99.90;;;;;;5054276;28;20235;-63
2023/10/16 01:40:37;;;;;;;14.10;13.50;;;5.70;99.90;;;;;;5054233;28;20216;-63
2023/10/16 01:43:05;;;;;;;13.23;12.73;;;5.80;99.90;;;;;;5054680;28;20204;-63
2023/10/16 01:45:32;;;;;;;14.20;13.60;;;5.70;99.90;;;;;;5054316;28;20207;-63
2023/10/16 01:48:04;;;;;;;14.15;13.55;;;5.80;99.90;;;;;;5054105;28;20290;-63
2023/10/16 01:50:32;;;;;;;14.15;13.55;;;5.70;99.90;;;;;;5054176;28;20215;-63
2023/10/16 01:52:59;;;;;;;13.90;13.30;;;5.70;99.90;;;;;;5053542;28;20678;-62
2023/10/16 01:55:27;;;;;;;13.73;13.20;;;5.70;99.90;;;;;;5053715;28;20784;-63
2023/10/16 01:57:59;;;;;;;13.87;13.37;;;5.70;99.90;;;;;;5053942;28;20219;-63
2023/10/16 02:00:34;;;;;;;13.27;12.77;;;5.70;99.90;;;;;;5055872;28;20685;-62
2023/10/16 02:03:01;;;;;;;14.03;13.43;;;5.70;99.90;;;;;;5056047;28;20203;-62
2023/10/16 02:05:28;;;;;;;13.80;13.20;;;5.70;99.90;;;;;;5054241;28;20663;-63
2023/10/16 02:07:56;;;;;;;13.90;13.30;;;5.60;99.90;;;;;;5052934;28;20305;-64
2023/10/16 02:10:23;;;;;;;13.83;13.23;;;5.70;99.90;;;;;;5052609;28;20235;-64
2023/10/16 02:12:50;;;;;;;14.60;14.00;;;5.60;99.90;;;;;;5047504;28;20257;-64
2023/10/16 02:15:21;;;;;;;14.38;13.77;;;5.60;99.90;;;;;;5053353;28;20662;-64
2023/10/16 02:17:49;;;;;;;13.10;12.63;;;5.60;99.90;;;;;;5053539;28;20222;-64
2023/10/16 02:20:17;;;;;;;13.52;13.02;;;5.70;99.90;;;;;;5053416;28;20263;-63
2023/10/16 02:22:45;;;;;;;13.35;12.85;;;5.70;99.90;;;;;;5054240;28;20203;-65
2023/10/16 02:25:12;;;;;;;14.30;13.70;;;5.80;99.90;;;;;;5054875;28;20208;-63
2023/10/16 02:27:41;;;;;;;14.10;13.50;;;5.80;99.90;;;;;;5054651;28;20238;-65
2023/10/16 02:30:28;;;;;;;12.65;12.07;;;5.80;99.90;;;;;;5054856;28;20204;-64
2023/10/16 02:33:00;;;;;;;13.50;13.00;;;5.80;99.90;;;;;;5048568;28;20808;-63
2023/10/16 02:35:27;;;;;;;13.17;12.57;;;5.90;99.90;;;;;;5054879;28;20713;-63
2023/10/16 02:37:57;;;;;;;13.23;12.73;;;5.90;99.90;;;;;;5054808;28;20285;-64
2023/10/16 02:40:25;;;;;;;12.88;12.38;;;5.90;99.90;;;;;;5054161;28;20226;-63
2023/10/16 02:42:55;;;;;;;13.90;13.30;;;5.90;99.90;;;;;;5053901;28;20232;-62
2023/10/16 02:45:25;;;;;;;13.65;13.05;;;5.90;99.90;;;;;;5059017;28;20250;-63
2023/10/16 02:47:53;;;;;;;13.63;13.13;;;5.90;99.90;;;;;;5062139;28;20224;-63
2023/10/16 02:50:21;;;;;;;13.85;13.25;;;5.90;99.90;;;;;;5060652;28;20207;-62
2023/10/16 02:52:48;;;;;;;14.13;13.53;;;5.90;99.90;;;;;;5045596;28;20712;-65
2023/10/16 02:55:16;;;;;;;14.63;14.02;;;5.90;99.90;;;;;;5051498;28;20208;-63
2023/10/16 02:57:43;;;;;;;13.73;13.23;;;5.90;99.90;;;;;;5053168;28;20297;-64
2023/10/16 03:00:18;;;;;;;14.30;13.70;;;5.90;99.90;;;;;;5052650;28;20700;-64
2023/10/16 03:02:47;;;;;;;13.60;13.10;;;5.90;99.90;;;;;;5048019;28;20196;-64
2023/10/16 03:05:22;;;;;;;14.40;13.80;;;5.80;99.90;;;;;;5052922;28;20216;-64
2023/10/16 03:07:51;;;;;;;13.60;13.07;;;5.80;99.90;;;;;;5043024;28;20399;-64
2023/10/16 03:10:20;;;;;;;14.18;13.57;;;5.80;99.90;;;;;;5053434;28;20200;-64
2023/10/16 03:12:49;;;;;;;13.13;12.63;;;5.80;99.90;;;;;;5049122;28;20244;-65
2023/10/16 03:15:20;;;;;;;13.68;13.10;;;5.80;99.90;;;;;;5051045;28;20218;-64
2023/10/16 03:17:50;;;;;;;13.50;13.00;;;5.80;99.90;;;;;;5053088;28;20231;-64
2023/10/16 03:20:21;;;;;;;13.57;13.07;;;5.80;99.90;;;;;;5052433;28;20322;-65
2023/10/16 03:22:48;;;;;;;14.02;13.43;;;5.80;99.90;;;;;;5052586;28;20208;-62
2023/10/16 03:25:50;;;;;;;13.95;13.35;;;5.80;99.90;;;;;;5052625;28;20204;-65
2023/10/16 03:28:12;;;;;;;14.30;13.70;;;5.80;99.90;;;;;;5048164;28;20231;-62
2023/10/16 03:30:42;;;;;;;14.75;14.15;;;5.80;99.90;;;;;;5052276;28;20211;-65
2023/10/16 03:33:13;;;;;;;14.32;13.73;;;5.80;99.90;;;;;;5052112;28;20204;-63
2023/10/16 03:35:47;;;;;;;14.20;13.60;;;5.70;99.90;;;;;;5044200;28;20204;-62
2023/10/16 03:38:24;;;;;;;14.10;13.50;;;5.70;99.90;;;;;;5051705;28;20250;-62
2023/10/16 03:40:52;;;;;;;13.60;13.02;;;5.70;99.90;;;;;;5050066;28;20207;-63
2023/10/16 03:43:21;;;;;;;14.87;14.27;;;5.70;99.90;;;;;;5052481;28;20212;-63
2023/10/16 03:45:49;;;;;;;13.57;13.07;;;5.70;99.90;;;;;;5065271;28;20203;-63
2023/10/16 03:48:16;;;;;;;14.63;14.03;;;5.70;99.90;;;;;;5061534;28;20227;-63
2023/10/16 03:50:43;;;;;;;13.93;13.43;;;5.70;99.90;;;;;;5062597;28;20208;-63
2023/10/16 03:53:13;;;;;;;14.13;13.53;;;5.70;99.90;;;;;;5065980;28;20204;-64
2023/10/16 03:55:44;;;;;;;14.73;14.13;;;5.70;99.90;;;;;;5064683;28;20237;-64
2023/10/16 03:58:13;;;;;;;14.48;13.88;;;5.70;99.90;;;;;;5055927;28;20231;-63
2023/10/16 04:00:53;;;;;;;14.23;13.73;;;5.70;99.90;;;;;;5054912;28;20236;-62
2023/10/16 04:03:21;;;;;;;14.80;14.20;;;5.70;99.90;;;;;;5052413;28;20207;-65
2023/10/16 04:05:48;;;;;;;14.40;13.80;;;5.70;99.90;;;;;;5052311;28;20211;-62
2023/10/16 04:08:17;;;;;;;14.43;13.83;;;5.70;99.90;;;;;;5051658;28;20224;-62
2023/10/16 04:10:46;;;;;;;14.43;13.83;;;5.70;99.90;;;;;;5052182;28;20211;-63
2023/10/16 04:13:15;;;;;;;14.23;13.63;;;5.70;99.90;;;;;;5052873;28;20203;-63
2023/10/16 04:18:30;;;;;;;14.40;13.80;;;5.60;99.90;;;;;;5052012;28;20234;-65
2023/10/16 04:21:17;;;;;;;14.20;13.60;;;5.60;99.90;;;;;;5052029;28;20212;-62
2023/10/16 04:23:53;;;;;;;14.60;14.00;;;5.60;99.90;;;;;;5047665;28;20257;-64
2023/10/16 04:26:47;;;;;;;13.98;13.38;;;5.60;99.90;;;;;;5051986;28;20584;-65
2023/10/16 04:29:25;;;;;;;14.40;13.80;;;5.70;99.90;;;;;;5051103;28;20219;-63
2023/10/16 04:31:57;;;;;;;14.13;13.55;;;5.70;99.90;;;;;;5047590;28;20619;-64
2023/10/16 04:34:24;;;;;;;15.23;14.52;;;5.70;99.90;;;;;;5051712;28;20195;-63
2023/10/16 04:37:24;;;;;;;14.67;14.07;;;5.60;99.90;;;;;;5051819;28;20246;-62
2023/10/16 04:45:28;;;;;;;14.40;13.80;;;5.60;99.90;;;;;;5055030;28;20234;-64
2023/10/16 04:48:07;;;;;;;13.82;13.23;;;5.60;99.90;;;;;;5063040;28;20232;-64
2023/10/16 04:50:49;;;;;;;13.73;13.20;;;5.50;99.90;;;;;;5054816;28;20199;-65
2023/10/16 04:53:21;;;;;;;14.20;13.60;;;5.60;99.90;;;;;;5051548;28;20212;-65
2023/10/16 04:56:04;;;;;;;14.53;13.93;;;5.60;99.90;;;;;;5052742;28;20643;-65
2023/10/16 04:58:39;;;;;;;15.17;14.47;;;5.50;99.90;;;;;;5046938;28;20236;-64
2023/10/16 05:06:49;;;;;;;14.98;14.38;;;5.50;99.90;;;;;;5054540;28;20210;-64
2023/10/16 06:15:37;;;;;;;13.60;13.00;;;5.60;99.90;;;;;;5065508;28;20285;-64
2023/10/16 06:18:06;;;;;;;13.45;12.95;;;5.60;99.90;;;;;;5089453;28;20234;-63
2023/10/16 06:20:37;;;;;;;14.63;14.03;;;5.60;99.90;;;;;;5093650;28;20234;-64
2023/10/16 06:23:09;;;;;;;15.33;14.63;;;5.70;99.90;;;;;;5086082;28;20251;-63
2023/10/16 06:25:36;;;;;;;14.73;14.13;;;5.70;99.90;;;;;;5080172;28;20665;-63
2023/10/16 06:28:08;;;;;;;14.27;13.67;;;5.80;99.90;;;;;;5078507;28;20315;-63
2023/10/16 06:30:37;;;;;;;14.65;14.05;;;5.80;99.90;;;;;;5069103;28;20716;-63
2023/10/16 06:33:05;;;;;;;14.93;14.32;;;5.90;99.90;;;;;;5068037;28;20270;-63
2023/10/16 06:35:32;;;;;;;15.17;14.50;;;6.00;99.90;;;;;;5065582;28;20518;-65
2023/10/16 06:38:00;;;;;;;14.47;13.87;;;6.10;99.90;;;;;;5074213;28;20227;-63
2023/10/16 06:40:32;;;;;;;14.50;13.90;;;6.20;99.90;;;;;;5073992;28;20203;-63
2023/10/16 06:43:10;;;;;;;13.40;12.90;;;6.20;99.90;;;;;;5074097;28;20207;-64
2023/10/16 06:45:42;;;;;;;13.73;13.23;;;6.30;99.90;;;;;;5060710;28;20203;-65
2023/10/16 06:48:14;;;;;;;14.15;13.55;;;6.40;99.90;;;;;;5060004;28;20250;-65
2023/10/16 06:50:45;;;;;;;13.27;12.77;;;6.40;99.90;;;;;;5056349;28;20247;-65
2023/10/16 06:53:13;;;;;;;13.50;13.00;;;6.60;99.90;;;;;;5054846;28;20207;-63
2023/10/16 06:55:41;;;;;;;13.82;13.32;;;6.70;99.90;;;;;;5055474;28;20269;-65
2023/10/16 06:58:07;;;;;;;13.15;12.65;;;6.80;99.90;;;;;;5054829;28;20228;-62
2023/10/16 07:00:38;;;;;;;13.80;13.30;;;6.80;99.90;;;;;;5059592;28;20298;-64
2023/10/16 07:03:09;;;;;;;13.17;12.67;;;6.90;99.90;;;;;;5055387;28;20211;-65
2023/10/16 07:05:45;;;;;;;13.30;12.80;;;6.90;99.90;;;;;;5053397;28;20210;-64
2023/10/16 07:08:16;;;;;;;13.50;12.93;;;6.90;99.90;;;;;;5059614;28;20223;-64
2023/10/16 07:10:49;;;;;;;13.32;12.75;;;6.70;99.90;;;;;;5049915;28;20243;-63
2023/10/16 07:13:19;;;;;;;13.25;12.75;;;6.50;99.90;;;;;;5054614;28;20270;-62
2023/10/16 07:15:50;;;;;;;13.68;13.18;;;6.40;99.90;;;;;;5053368;28;20223;-64
2023/10/16 07:18:16;;;;;;;13.75;13.18;;;6.40;99.90;;;;;;5054388;28;20223;-63
2023/10/16 07:20:55;;;;;;;13.97;13.37;;;6.40;99.90;;;;;;5053377;28;20204;-64
2023/10/16 07:23:24;;;;;;;13.60;13.10;;;6.40;99.90;;;;;;5053310;28;20745;-64
2023/10/16 07:25:55;;;;;;;13.60;13.10;;;6.40;99.90;;;;;;5054101;28;20289;-64
2023/10/16 07:28:22;;;;;;;14.03;13.43;;;6.40;99.90;;;;;;5058761;28;20271;-63
2023/10/16 07:30:49;;;;;;;14.20;13.60;;;6.30;99.90;;;;;;5053313;28;20212;-64
2023/10/16 07:33:16;;;;;;;14.18;13.57;;;6.30;99.90;;;;;;5053545;28;20232;-63
2023/10/16 07:35:44;;;;;;;14.00;13.50;;;6.30;99.90;;;;;;5053600;28;20496;-63
2023/10/16 07:38:11;;;;;;;13.55;13.05;;;6.30;99.90;;;;;;5062362;28;20248;-62
2023/10/16 07:40:38;;;;;;;13.52;13.02;;;6.40;99.90;;;;;;5052764;28;20211;-63
2023/10/16 07:43:06;;;;;;;14.53;13.93;;;6.40;99.90;;;;;;5059357;28;20219;-66
2023/10/16 07:45:33;;;;;;;14.13;13.60;;;6.40;99.90;;;;;;5053478;28;20208;-64
2023/10/16 07:48:07;;;;;;;13.10;12.60;;;6.40;99.90;;;;;;5059800;28;20223;-63
2023/10/16 07:50:38;;;;;;;14.23;13.63;;;6.50;99.90;;;;;;5053656;28;20215;-64
2023/10/16 07:53:05;;;;;;;14.05;13.45;;;6.50;99.90;;;;;;5053454;28;20216;-63
2023/10/16 07:55:38;;;;;;;13.55;13.00;;;6.40;99.90;;;;;;5053596;28;20235;-64
2023/10/16 07:58:15;;;;;;;14.32;13.70;;;6.50;99.90;;;;;;5052318;28;20761;-64
2023/10/16 08:00:56;;;;;;;13.37;12.87;;;6.60;99.90;;;;;;5052166;28;20209;-64
2023/10/16 08:03:23;;;;;;;13.50;12.90;;;6.70;99.90;;;;;;5053748;28;20262;-64
2023/10/16 08:05:49;;;;;;;13.43;12.93;;;6.80;99.90;;;;;;5052910;28;20701;-63
2023/10/16 08:08:25;;;;;;;14.00;13.40;;;6.80;99.90;;;;;;5069943;28;20236;-64
2023/10/16 08:10:52;;;;;;;13.77;13.20;;;6.90;99.90;;;;;;5060835;28;20265;-63
2023/10/16 08:13:24;;;;;;;14.30;13.70;;;7.00;99.90;;;;;;5052726;28;20678;-64
2023/10/16 08:15:51;;;;;;;13.55;13.05;;;7.20;99.90;;;;;;5052903;28;20244;-62
2023/10/16 08:18:19;;;;;;;14.37;13.77;;;7.40;99.90;;;;;;5058710;28;20235;-63
2023/10/16 08:21:04;;;;;;;14.68;14.07;;;7.60;99.90;;;;;;5052839;28;20199;-64
2023/10/16 08:23:35;;;;;;;14.35;13.75;;;7.60;99.90;;;;;;5059787;28;20246;-62
2023/10/16 08:26:05;;;;;;;13.70;13.20;;;7.80;99.90;;;;;;5053263;28;20345;-65
2023/10/16 08:28:36;;;;;;;14.00;13.40;;;8.00;99.90;;;;;;5052707;28;20234;-64
2023/10/16 08:31:22;;;;;;;13.60;13.00;;;8.20;99.90;;;;;;5052309;28;20208;-64
2023/10/16 08:33:50;;;;;;;13.30;12.80;;;8.40;99.90;;;;;;5047824;28;20212;-64
2023/10/16 08:36:18;;;;;;;13.85;13.35;;;8.70;99.90;;;;;;5054512;28;20243;-63
2023/10/16 08:38:52;;;;;;;13.85;13.27;;;9.00;99.90;;;;;;5062615;22;20228;-64
2023/10/16 08:41:29;;;;;;;13.15;12.65;;;9.10;99.90;;;;;;5031042;28;20266;-63
2023/10/16 08:44:04;;;;;;;14.73;14.13;;;9.10;99.90;;;;;;5031606;28;20581;-63
2023/10/16 08:46:32;;;;;;;14.67;14.07;;;9.10;99.90;;;;;;5030984;28;20203;-64
2023/10/16 08:49:00;;;;;;;14.10;13.60;;;9.30;99.90;;;;;;5022672;28;20229;-64
2023/10/16 08:51:28;;;;;;;14.00;13.50;;;9.50;99.90;;;;;;5016470;28;20690;-64
2023/10/16 08:53:59;;;;;;;13.67;13.17;;;9.60;99.90;;;;;;5016984;28;20213;-64
2023/10/16 08:56:26;;;;;;;13.70;13.20;;;9.70;99.90;;;;;;5024798;28;20229;-63
2023/10/16 08:58:56;;;;;;;13.93;13.40;;;9.80;99.90;;;;;;5028577;28;20231;-63
2023/10/16 09:01:28;;;;;;;13.60;13.10;;;10.00;99.90;;;;;;5026882;28;20637;-64
2023/10/16 09:04:05;;;;;;;13.53;13.03;;;10.30;99.90;;;;;;5026053;28;20219;-65
2023/10/16 09:06:36;;;;;;;12.63;12.13;;;10.70;99.90;;;;;;5022073;28;20217;-65
2023/10/16 09:09:11;;;;;;;12.87;12.37;;;10.90;99.90;;;;;;5024965;28;20271;-64
2023/10/16 09:11:39;;;;;;;13.02;12.57;;;10.80;99.90;;;;;;5025914;28;20280;-65
2023/10/16 09:14:07;;;;;;;14.57;14.07;;;11.20;99.90;;;;;;5020800;28;20209;-63
2023/10/16 09:16:36;;;;;;;13.73;13.23;;;11.20;99.90;;;;;;5021446;28;20233;-63
2023/10/16 09:19:07;;;;;;;15.63;15.13;;;11.20;99.90;;;;;;5024916;28;20236;-64
2023/10/16 09:21:38;;;;;;;14.83;14.33;;;11.30;99.90;;;;;;5018501;28;20231;-63
2023/10/16 09:24:07;;;;;;;15.70;15.10;;;11.30;99.90;;;;;;5019705;28;20231;-65
2023/10/16 09:26:38;;;;;;;14.67;14.10;;;11.30;99.90;;;;;;5022844;28;20664;-65
2023/10/16 09:29:13;;;;;;;16.57;15.97;;;11.30;99.90;;;;;;5023227;28;20235;-64
2023/10/16 09:31:44;;;;;;;14.20;13.70;;;11.20;99.90;;;;;;5020853;28;20235;-65
2023/10/16 09:34:13;;;;;;;15.07;14.57;;;11.30;99.90;;;;;;5021250;28;20834;-64
2023/10/16 09:36:41;;;;;;;13.85;13.35;;;11.30;99.90;;;;;;5016617;28;20220;-65
2023/10/16 09:39:17;;;;;;;14.63;14.13;;;11.30;99.90;;;;;;5017495;28;20290;-64
2023/10/16 09:41:46;;;;;;;15.25;14.73;;;11.50;99.90;;;;;;5018667;28;20205;-65
2023/10/16 09:44:23;;;;;;;14.05;13.55;;;11.60;99.90;;;;;;5022925;28;20208;-65
2023/10/16 09:46:54;;;;;;;13.10;12.70;;;11.80;99.90;;;;;;5012282;28;20209;-65
2023/10/16 09:49:23;;;;;;;13.90;13.40;;;11.90;99.90;;;;;;5024837;28;20229;-64
2023/10/16 09:51:53;;;;;;;12.63;12.23;;;12.00;99.90;;;;;;5022647;28;20209;-63
2023/10/16 09:54:21;;;;;;;14.07;13.57;;;12.10;99.90;;;;;;5020110;28;20204;-65
2023/10/16 09:56:52;;;;;;;14.17;13.67;;;12.20;99.90;;;;;;5021300;28;20669;-65
2023/10/16 09:59:26;;;;;;;13.02;12.52;;;12.40;99.90;;;;;;5019914;28;20228;-64
2023/10/16 10:02:02;;;;;;;12.45;12.05;;;12.40;99.90;;;;;;5019892;28;20205;-64
2023/10/16 10:04:32;;;;;;;12.90;12.48;;;12.50;99.90;;;;;;5022983;28;20205;-64
2023/10/16 10:07:03;;;;;;;13.65;13.15;;;12.60;99.90;;;;;;5027510;28;20227;-64
2023/10/16 10:09:42;;;;;;;13.32;12.82;;;12.60;99.90;;;;;;5026850;28;20235;-65
2023/10/16 10:12:28;;;;;;;15.00;14.50;;;12.60;99.90;;;;;;5029160;28;20231;-64
2023/10/16 10:15:12;;;;;;;14.00;13.50;;;12.70;99.90;;;;;;5025663;28;20680;-64
2023/10/16 10:17:40;;;;;;;15.63;15.13;;;12.70;99.90;;;;;;5030364;28;20228;-66
2023/10/16 10:20:09;;;;;;;15.13;14.63;;;12.70;99.90;;;;;;5029727;28;20208;-65
2023/10/16 10:22:37;;;;;;;16.53;15.93;;;12.80;99.90;;;;;;5025202;28;20217;-65
2023/10/16 10:25:16;;;;;;;16.45;15.85;;;12.70;99.90;;;;;;5018481;28;20213;-65
2023/10/16 10:27:43;;;;;;;17.67;17.08;;;12.80;99.90;;;;;;5017719;28;20229;-64
2023/10/16 10:30:16;;;;;;;17.17;16.57;;;12.80;99.90;;;;;;5022361;28;20206;-64
2023/10/16 10:32:51;;;;;;;16.53;15.93;;;12.90;99.90;;;;;;5012830;28;20664;-64
2023/10/16 10:35:26;;;;;;;14.70;14.20;;;12.90;99.90;;;;;;5028604;28;20211;-64
2023/10/16 10:38:07;;;;;;;13.93;13.43;;;13.00;99.90;;;;;;5025565;28;20236;-65
2023/10/16 10:40:35;;;;;;;13.87;13.37;;;13.00;99.90;;;;;;5024314;28;20300;-64
2023/10/16 10:43:04;;;;;;;16.27;15.67;;;12.90;99.90;;;;;;5021379;28;20739;-64
2023/10/16 10:45:34;;;;;;;16.83;16.23;;;13.00;99.90;;;;;;5027366;28;20694;-65
2023/10/16 10:48:09;;;;;;;18.00;17.33;;;13.10;99.90;;;;;;5028699;28;20224;-64
2023/10/16 10:50:38;;;;;;;16.63;16.03;;;13.40;99.90;;;;;;5028824;28;20215;-64
2023/10/16 10:53:13;;;;;;;15.53;15.03;;;13.20;99.90;;;;;;5023254;28;20264;-63
2023/10/16 10:55:53;;;;;;;17.30;16.63;;;13.10;99.90;;;;;;5029615;28;20204;-64
2023/10/16 10:58:23;;;;;;;14.93;14.43;;;13.20;99.90;;;;;;5028019;28;20317;-65
2023/10/16 11:00:51;;;;;;;13.40;12.90;;;13.40;99.90;;;;;;5030293;28;20312;-64
2023/10/16 11:03:30;;;;;;;14.70;14.20;;;13.50;99.90;;;;;;5022585;28;20629;-65
2023/10/16 11:05:57;;;;;;;15.73;15.23;;;13.40;99.90;;;;;;5025258;28;20209;-64
2023/10/16 11:08:29;;;;;;;15.57;15.07;;;13.30;99.90;;;;;;5016061;28;20561;-64
2023/10/16 11:10:57;;;;;;;13.53;13.07;;;13.40;99.90;;;;;;5029106;28;20205;-65
2023/10/16 11:13:26;;;;;;;16.57;15.97;;;13.50;99.90;;;;;;5021790;28;20208;-65
2023/10/16 11:15:54;;;;;;;14.80;14.30;;;13.70;99.90;;;;;;5026694;28;20200;-64
2023/10/16 11:18:26;;;;;;;14.40;13.90;;;13.70;99.90;;;;;;5028576;28;20239;-65
2023/10/16 11:20:54;;;;;;;15.40;14.90;;;13.70;99.90;;;;;;5019474;28;20213;-66
2023/10/16 11:23:25;;;;;;;14.15;13.65;;;13.80;99.90;;;;;;5028970;28;20224;-64
2023/10/16 11:25:52;;;;;;;13.85;13.35;;;13.80;99.90;;;;;;5025317;28;20216;-64
2023/10/16 11:28:21;;;;;;;12.80;12.30;;;14.00;99.90;;;;;;5028812;28;20543;-64
2023/10/16 11:30:49;;;;;;;12.70;12.27;;;14.10;99.90;;;;;;5030142;28;20208;-63
2023/10/16 11:33:27;;;;;;;12.43;12.02;;;14.20;99.90;;;;;;5028269;28;20299;-63
2023/10/16 11:36:02;;;;;;;12.32;11.90;;;14.30;99.90;;;;;;5030018;28;20232;-63
2023/10/16 11:38:29;;;;;;;12.23;11.82;;;14.30;99.90;;;;;;5016787;28;20228;-64
2023/10/16 11:40:57;;;;;;;12.60;12.20;;;14.20;99.90;;;;;;5024554;28;20228;-63
2023/10/16 11:43:24;;;;;;;13.50;13.00;;;14.20;99.90;;;;;;5034460;28;20616;-65
2023/10/16 11:45:56;;;;;;;12.77;12.35;;;14.10;99.90;;;;;;5039907;28;20209;-65
2023/10/16 11:48:35;;;;;;;12.48;12.07;;;14.20;99.90;;;;;;5034476;28;20224;-65
2023/10/16 11:51:10;;;;;;;12.20;11.80;;;14.30;99.90;;;;;;5046500;28;20227;-66
2023/10/16 11:53:38;;;;;;;12.70;12.20;;;14.40;99.90;;;;;;5041746;28;20216;-65
2023/10/16 11:56:08;;;;;;;13.07;12.48;;;14.50;99.90;;;;;;5033493;28;20209;-63
2023/10/16 11:58:35;;;;;;;12.87;12.37;;;14.60;99.90;;;;;;5029018;28;20700;-64
2023/10/16 12:01:09;;;;;;;12.63;12.23;;;14.60;99.90;;;;;;5022510;28;20204;-65
2023/10/16 12:03:37;;;;;;;12.60;12.10;;;14.70;99.90;;;;;;5029034;28;20747;-64
2023/10/16 12:06:13;;;;;;;12.45;12.05;;;14.80;99.90;;;;;;5028018;28;20271;-65
2023/10/16 12:08:41;;;;;;;11.95;11.55;;;14.80;99.90;;;;;;5023925;28;20224;-63
2023/10/16 12:11:08;;;;;;;11.82;11.43;;;15.00;99.90;;;;;;5039962;28;20259;-64
2023/10/16 12:13:36;;;;;;;12.02;11.63;;;15.10;99.90;;;;;;5032446;28;20229;-63
2023/10/16 12:16:05;;;;;;;11.85;11.45;;;15.20;99.90;;;;;;5037875;28;20241;-64
2023/10/16 12:18:32;;;;;;;12.10;11.70;;;15.20;99.90;;;;;;5026557;28;20244;-64
2023/10/16 12:21:04;;;;;;;11.60;11.20;;;15.30;99.90;;;;;;5024456;28;20208;-65
2023/10/16 12:23:33;;;;;;;12.43;12.02;;;15.20;99.90;;;;;;5023266;28;20208;-65
2023/10/16 12:26:01;;;;;;;13.20;12.80;;;15.30;99.90;;;;;;5020581;28;20205;-63
2023/10/16 12:28:30;;;;;;;13.00;12.60;;;15.40;99.90;;;;;;5013450;28;20285;-63
2023/10/16 12:30:57;;;;;;;12.50;12.10;;;15.50;99.90;;;;;;5021620;28;20209;-65
2023/10/16 12:33:25;;;;;;;12.30;11.90;;;15.60;99.90;;;;;;5024409;28;20285;-64
2023/10/16 12:35:54;;;;;;;13.52;13.02;;;15.70;99.90;;;;;;5033552;28;20276;-63
2023/10/16 12:38:23;;;;;;;13.27;12.80;;;15.70;99.90;;;;;;5039101;28;20595;-64
2023/10/16 12:40:55;;;;;;;16.70;16.00;;;15.60;99.90;;;;;;5036040;28;20208;-60
2023/10/16 12:43:25;;;;;;;12.70;12.30;;;15.80;99.90;;;;;;5034685;28;20217;-59
2023/10/16 12:45:52;;;;;;;12.00;11.60;;;15.70;99.90;;;;;;5033627;28;20208;-60
2023/10/16 12:48:18;;;;;;;12.88;12.48;;;15.60;99.90;;;;;;5028355;28;20239;-60
2023/10/16 12:50:47;;;;;;;13.05;12.65;;;15.50;99.90;;;;;;5023637;28;20213;-60
2023/10/16 12:53:15;;;;;;;14.35;13.75;;;15.90;99.90;;;;;;5028759;28;20208;-61
2023/10/16 12:55:42;;;;;;;13.90;13.40;;;16.20;99.90;;;;;;5017232;28;20212;-61
2023/10/16 12:58:10;;;;;;;14.00;13.40;;;16.40;99.90;;;;;;5022577;28;20707;-60
2023/10/16 13:00:39;;;;;;;12.48;12.07;;;16.60;99.90;;;;;;5021548;28;20759;-61
2023/10/16 13:03:13;;;;;;;12.57;12.07;;;16.80;99.90;;;;;;5023751;28;20211;-60
2023/10/16 13:05:40;;;;;;;11.95;11.50;;;16.90;99.90;;;;;;5020848;28;20666;-60
2023/10/16 13:08:08;;;;;;;11.80;11.40;;;17.00;99.90;;;;;;5024592;28;20283;-60
2023/10/16 13:10:35;;;;;;;13.27;12.77;;;16.80;99.90;;;;;;5023401;28;20679;-60
2023/10/16 13:13:04;;;;;;;13.93;13.43;;;16.90;99.90;;;;;;5029091;28;20581;-59
2023/10/16 13:15:32;;;;;;;13.68;13.18;;;17.10;99.90;;;;;;5025866;28;20296;-60
2023/10/16 13:18:00;;;;;;;13.47;12.97;;;17.20;99.90;;;;;;5019585;28;20233;-63
2023/10/16 13:20:27;;;;;;;13.17;12.67;;;17.20;99.90;;;;;;5017403;28;20212;-59
2023/10/16 13:22:55;;;;;;;12.90;12.50;;;17.30;99.90;;;;;;5033228;28;20224;-62
2023/10/16 13:25:25;;;;;;;14.32;13.80;;;17.30;99.90;;;;;;5022827;28;20247;-60
2023/10/16 13:27:52;;;;;;;12.30;11.90;;;17.20;99.90;;;;;;5014878;28;20725;-60
2023/10/16 13:30:22;;;;;;;13.25;12.75;;;17.20;99.90;;;;;;5011051;28;20219;-62
2023/10/16 13:32:50;;;;;;;14.32;13.82;;;17.30;99.90;;;;;;5011605;28;20211;-61
2023/10/16 13:35:17;;;;;;;14.68;14.18;;;17.30;99.90;;;;;;5010809;28;20224;-63
2023/10/16 13:37:45;;;;;;;13.38;12.95;;;17.30;99.90;;;;;;5009951;28;20244;-66
2023/10/16 13:40:20;;;;;;;13.77;13.27;;;17.40;99.90;;;;;;5006956;28;20212;-65
2023/10/16 13:42:48;;;;;;;13.75;13.27;;;17.30;99.90;;;;;;5012290;28;20213;-66
2023/10/16 13:45:15;;;;;;;14.57;14.07;;;17.20;99.90;;;;;;5012977;28;20216;-65
2023/10/16 13:47:43;;;;;;;15.07;14.57;;;17.10;99.90;;;;;;5012534;28;20279;-67
2023/10/16 13:50:13;;;;;;;13.88;13.38;;;17.10;99.90;;;;;;5012684;28;20284;-64
2023/10/16 13:52:41;;;;;;;13.80;13.32;;;17.10;99.90;;;;;;5010454;28;20205;-65
2023/10/16 13:55:12;;;;;;;13.95;13.45;;;17.00;99.90;;;;;;5012195;28;20652;-64
2023/10/16 13:57:42;;;;;;;14.05;13.55;;;17.00;99.90;;;;;;5006718;28;20292;-66
2023/10/16 14:00:12;;;;;;;14.52;14.02;;;17.00;99.90;;;;;;5012999;28;20212;-66
2023/10/16 14:02:40;;;;;;;13.25;12.85;;;17.00;99.90;;;;;;5012548;28;20209;-64
2023/10/16 14:05:08;;;;;;;13.70;13.23;;;16.90;99.90;;;;;;5013237;28;20649;-66
2023/10/16 14:07:36;;;;;;;13.13;12.73;;;16.90;99.90;;;;;;5013699;28;20635;-66
2023/10/16 14:10:03;;;;;;;13.73;13.23;;;16.90;99.90;;;;;;5011740;28;20615;-65